Time;durP1;ratioP1;P1;durP2;ratioP2;P2;SDS_P1;SDS_P2;PMS_P1;PMS_P2;Temp;Humidity;BMP_temperature;BMP_pressure;BME280_temperature;BME280_humidity;BME280_pressure;Samples;Min_cycle;Max_cycle;Signal;HPM_P1;HPM_P2
2023/04/05 00:01:06;;;;;;;5.05;1.77;;;;;;;;;;5056673;28;20051;-26
2023/04/05 00:03:33;;;;;;;6.82;1.83;;;;;;;;;;5056542;28;20061;-26
2023/04/05 00:06:01;;;;;;;4.15;1.60;;;;;;;;;;5056833;28;20112;-26
2023/04/05 00:08:28;;;;;;;3.78;2.33;;;;;;;;;;5056716;28;20094;-28
2023/04/05 00:10:54;;;;;;;3.83;1.88;;;;;;;;;;5056422;28;20508;-26
2023/04/05 00:13:21;;;;;;;4.10;1.98;;;;;;;;;;5056713;28;20049;-26
2023/04/05 00:15:47;;;;;;;6.68;3.10;;;;;;;;;;5056684;28;20401;-26
2023/04/05 00:18:22;;;;;;;4.72;1.70;;;;;;;;;;5056333;28;20356;-26
2023/04/05 00:20:52;;;;;;;5.10;2.05;;;;;;;;;;5056293;28;20028;-26
2023/04/05 00:23:19;;;;;;;8.77;4.18;;;;;;;;;;5056464;28;20075;-26
2023/04/05 00:25:45;;;;;;;2.00;1.50;;;;;;;;;;5056222;28;20052;-26
2023/04/05 00:28:11;;;;;;;6.15;1.80;;;;;;;;;;5056129;28;20043;-26
2023/04/05 00:30:38;;;;;;;4.72;1.95;;;;;;;;;;5056324;28;20036;-26
2023/04/05 00:33:04;;;;;;;7.47;1.98;;;;;;;;;;5056036;28;20032;-26
2023/04/05 00:35:30;;;;;;;2.47;1.60;;;;;;;;;;5056287;28;20090;-26
2023/04/05 00:37:56;;;;;;;2.88;2.05;;;;;;;;;;5056154;28;20035;-26
2023/04/05 00:40:23;;;;;;;6.18;2.40;;;;;;;;;;5056170;28;20091;-26
2023/04/05 00:42:49;;;;;;;4.38;1.58;;;;;;;;;;5055623;28;20550;-26
2023/04/05 00:45:15;;;;;;;8.98;2.70;;;;;;;;;;5056137;28;20035;-26
2023/04/05 00:47:42;;;;;;;2.90;1.63;;;;;;;;;;5055693;28;20337;-26
2023/04/05 00:50:10;;;;;;;4.05;2.05;;;;;;;;;;5055883;28;20128;-26
2023/04/05 00:52:42;;;;;;;3.28;1.80;;;;;;;;;;5055953;28;20096;-26
2023/04/05 00:55:10;;;;;;;2.80;1.58;;;;;;;;;;5055900;28;20096;-26
2023/04/05 00:57:40;;;;;;;3.42;1.60;;;;;;;;;;5055769;28;20028;-26
2023/04/05 01:00:08;;;;;;;5.50;3.20;;;;;;;;;;5055844;28;20031;-26
2023/04/05 01:02:52;;;;;;;9.20;2.00;;;;;;;;;;5055739;28;20025;-26
2023/04/05 01:05:38;;;;;;;4.25;2.10;;;;;;;;;;5055687;28;20407;-26
2023/04/05 01:08:28;;;;;;;3.78;1.67;;;;;;;;;;5055223;28;20462;-26
2023/04/05 01:10:59;;;;;;;2.97;1.90;;;;;;;;;;5027592;28;20079;-26
2023/04/05 01:13:25;;;;;;;4.30;1.50;;;;;;;;;;5055546;28;20021;-26
2023/04/05 01:15:51;;;;;;;4.68;1.50;;;;;;;;;;5055548;28;20348;-26
2023/04/05 01:18:20;;;;;;;3.30;1.70;;;;;;;;;;5055222;28;20050;-26
2023/04/05 01:20:52;;;;;;;6.10;2.00;;;;;;;;;;5055066;28;20025;-26
2023/04/05 01:23:30;;;;;;;2.63;1.77;;;;;;;;;;5055395;28;20353;-26
2023/04/05 01:25:59;;;;;;;7.97;3.30;;;;;;;;;;5055085;28;20024;-26
2023/04/05 01:28:31;;;;;;;5.72;2.08;;;;;;;;;;5055089;28;20025;-26
2023/04/05 01:31:03;;;;;;;3.70;1.23;;;;;;;;;;5055159;28;20033;-26
2023/04/05 01:33:37;;;;;;;2.42;1.63;;;;;;;;;;5055997;28;20094;-26
2023/04/05 01:36:10;;;;;;;1.85;1.50;;;;;;;;;;5054960;28;20017;-26
2023/04/05 01:38:38;;;;;;;2.30;1.55;;;;;;;;;;5054866;28;20470;-26
2023/04/05 01:41:05;;;;;;;4.40;1.80;;;;;;;;;;5054792;28;20109;-26
2023/04/05 01:43:31;;;;;;;2.72;1.48;;;;;;;;;;5054571;28;20107;-26
2023/04/05 01:45:57;;;;;;;2.72;1.55;;;;;;;;;;5054781;28;20028;-26
2023/04/05 01:48:24;;;;;;;3.03;1.50;;;;;;;;;;5054672;28;20436;-26
2023/04/05 01:50:50;;;;;;;3.25;1.88;;;;;;;;;;5054620;28;20052;-26
2023/04/05 01:53:16;;;;;;;3.10;1.90;;;;;;;;;;5054921;28;20032;-26
2023/04/05 01:55:42;;;;;;;4.20;1.42;;;;;;;;;;5054550;28;20451;-24
2023/04/05 01:58:08;;;;;;;2.25;1.83;;;;;;;;;;5053953;28;20044;-23
2023/04/05 02:00:35;;;;;;;3.63;2.42;;;;;;;;;;5054523;28;20060;-23
2023/04/05 02:03:01;;;;;;;3.03;1.60;;;;;;;;;;5054437;28;20044;-24
2023/04/05 02:05:27;;;;;;;5.78;1.85;;;;;;;;;;5054442;28;20162;-23
2023/04/05 02:07:53;;;;;;;3.45;1.65;;;;;;;;;;5054548;28;20028;-23
2023/04/05 02:10:19;;;;;;;3.55;1.63;;;;;;;;;;5054248;28;20024;-23
2023/04/05 02:12:45;;;;;;;2.45;1.45;;;;;;;;;;5054951;28;20021;-23
2023/04/05 02:15:11;;;;;;;3.75;1.60;;;;;;;;;;5054262;28;20479;-23
2023/04/05 02:17:38;;;;;;;3.50;2.10;;;;;;;;;;5054271;28;20025;-24
2023/04/05 02:20:09;;;;;;;6.55;1.70;;;;;;;;;;5054560;28;20025;-23
2023/04/05 02:22:35;;;;;;;2.17;1.40;;;;;;;;;;5054573;28;20412;-23
2023/04/05 02:25:02;;;;;;;5.43;2.13;;;;;;;;;;5054265;28;20040;-23
2023/04/05 02:27:29;;;;;;;5.32;3.85;;;;;;;;;;5054186;28;20025;-24
2023/04/05 02:29:56;;;;;;;2.20;1.45;;;;;;;;;;5054182;28;20333;-23
2023/04/05 02:32:22;;;;;;;2.97;1.55;;;;;;;;;;5054515;28;20018;-24
2023/04/05 02:34:49;;;;;;;2.22;2.03;;;;;;;;;;5054504;28;20017;-23
2023/04/05 02:37:15;;;;;;;2.45;1.67;;;;;;;;;;5054338;28;20032;-23
2023/04/05 02:39:42;;;;;;;3.35;1.63;;;;;;;;;;5054166;28;20022;-24
2023/04/05 02:42:08;;;;;;;3.92;2.28;;;;;;;;;;5054115;28;20033;-24
2023/04/05 02:44:34;;;;;;;5.07;1.90;;;;;;;;;;5053950;28;20056;-24
2023/04/05 02:47:00;;;;;;;1.98;1.60;;;;;;;;;;5053959;28;20049;-27
2023/04/05 02:49:26;;;;;;;4.00;1.60;;;;;;;;;;5054311;28;20025;-26
2023/04/05 02:51:54;;;;;;;2.05;1.50;;;;;;;;;;5053946;28;20457;-26
2023/04/05 02:54:20;;;;;;;4.18;1.88;;;;;;;;;;5054281;28;20025;-27
2023/04/05 02:56:48;;;;;;;3.08;1.45;;;;;;;;;;5054571;28;20035;-26
2023/04/05 02:59:15;;;;;;;3.88;1.65;;;;;;;;;;5053936;28;20055;-26
2023/04/05 03:01:43;;;;;;;3.03;1.35;;;;;;;;;;5053988;28;20029;-26
2023/04/05 03:04:12;;;;;;;3.97;2.03;;;;;;;;;;5054157;28;20363;-26
2023/04/05 03:06:38;;;;;;;2.15;1.70;;;;;;;;;;5036294;28;20036;-26
2023/04/05 03:09:05;;;;;;;2.88;1.35;;;;;;;;;;5053903;28;20025;-26
2023/04/05 03:11:31;;;;;;;1.52;1.35;;;;;;;;;;5057496;28;20078;-26
2023/04/05 03:13:58;;;;;;;2.40;1.40;;;;;;;;;;5057578;28;20025;-26
2023/04/05 03:16:24;;;;;;;2.38;1.60;;;;;;;;;;5057486;28;20021;-26
2023/04/05 03:18:50;;;;;;;1.85;1.65;;;;;;;;;;5057517;28;20028;-26
2023/04/05 03:21:17;;;;;;;4.43;2.25;;;;;;;;;;5057694;28;20052;-26
2023/04/05 03:23:45;;;;;;;4.95;2.13;;;;;;;;;;5057389;28;20025;-26
2023/04/05 03:26:14;;;;;;;4.20;1.55;;;;;;;;;;5057599;28;20166;-26
2023/04/05 03:28:43;;;;;;;3.40;1.50;;;;;;;;;;5057342;28;20409;-26
2023/04/05 03:31:10;;;;;;;6.15;2.33;;;;;;;;;;5057426;28;20150;-26
2023/04/05 03:33:36;;;;;;;4.38;1.70;;;;;;;;;;5057256;28;20460;-26
2023/04/05 03:36:04;;;;;;;2.53;1.40;;;;;;;;;;5057367;28;20499;-26
2023/04/05 03:38:31;;;;;;;3.40;1.30;;;;;;;;;;5057244;28;20047;-26
2023/04/05 03:40:57;;;;;;;6.95;1.83;;;;;;;;;;5057325;28;20033;-26
2023/04/05 03:43:23;;;;;;;3.20;1.95;;;;;;;;;;5039224;28;20495;-26
2023/04/05 03:45:50;;;;;;;5.28;1.73;;;;;;;;;;5057476;28;20056;-26
2023/04/05 03:48:19;;;;;;;2.47;1.98;;;;;;;;;;5057099;28;20392;-26
2023/04/05 03:50:45;;;;;;;5.72;2.13;;;;;;;;;;5056659;28;20025;-26
2023/04/05 03:53:11;;;;;;;7.55;1.88;;;;;;;;;;5056814;28;20056;-26
2023/04/05 03:55:39;;;;;;;2.72;1.88;;;;;;;;;;5057505;28;20162;-26
2023/04/05 03:58:05;;;;;;;6.07;1.70;;;;;;;;;;5056871;28;20017;-26
2023/04/05 04:00:31;;;;;;;8.40;1.65;;;;;;;;;;5056627;28;20056;-26
2023/04/05 04:02:57;;;;;;;3.03;1.50;;;;;;;;;;5056850;28;20040;-25
2023/04/05 04:05:23;;;;;;;2.47;1.80;;;;;;;;;;5056748;28;20025;-24
2023/04/05 04:07:50;;;;;;;3.33;2.35;;;;;;;;;;5056289;28;20028;-24
2023/04/05 04:10:16;;;;;;;2.17;1.98;;;;;;;;;;5056546;28;20183;-24
2023/04/05 04:12:43;;;;;;;3.97;1.58;;;;;;;;;;5056315;28;20353;-24
2023/04/05 04:15:10;;;;;;;3.13;2.00;;;;;;;;;;5056132;28;20100;-24
2023/04/05 04:17:36;;;;;;;3.35;1.40;;;;;;;;;;5056111;28;20017;-24
2023/04/05 04:20:10;;;;;;;2.55;1.67;;;;;;;;;;5038540;28;20040;-25
2023/04/05 04:22:37;;;;;;;2.40;1.60;;;;;;;;;;5055292;28;20017;-25
2023/04/05 04:25:10;;;;;;;3.20;2.00;;;;;;;;;;5056344;28;20047;-25
2023/04/05 04:27:38;;;;;;;4.07;1.77;;;;;;;;;;5056212;28;20056;-25
2023/04/05 04:30:09;;;;;;;3.97;1.80;;;;;;;;;;5055965;28;20045;-25
2023/04/05 04:32:55;;;;;;;6.13;1.90;;;;;;;;;;5056104;28;20028;-25
2023/04/05 04:35:25;;;;;;;6.22;2.08;;;;;;;;;;5056334;28;20075;-25
2023/04/05 04:37:53;;;;;;;5.03;1.88;;;;;;;;;;5056094;28;20021;-25
2023/04/05 04:40:21;;;;;;;4.07;3.00;;;;;;;;;;5056076;28;20036;-25
2023/04/05 04:42:47;;;;;;;4.07;2.03;;;;;;;;;;5055625;28;20028;-25
2023/04/05 04:45:17;;;;;;;5.57;1.70;;;;;;;;;;5055948;28;20349;-25
2023/04/05 04:47:43;;;;;;;2.35;1.70;;;;;;;;;;5056088;28;20101;-25
2023/04/05 04:50:10;;;;;;;4.63;1.95;;;;;;;;;;5055491;28;20464;-25
2023/04/05 04:52:37;;;;;;;2.63;1.60;;;;;;;;;;5055902;28;20082;-25
2023/04/05 04:55:04;;;;;;;4.10;2.05;;;;;;;;;;5055513;28;20025;-25
2023/04/05 04:57:30;;;;;;;6.97;2.05;;;;;;;;;;5055438;28;20021;-25
2023/04/05 04:59:56;;;;;;;4.05;2.50;;;;;;;;;;5055418;28;20028;-25
2023/04/05 05:02:23;;;;;;;2.42;1.50;;;;;;;;;;5055517;28;20025;-25
2023/04/05 05:04:50;;;;;;;5.78;2.28;;;;;;;;;;5038331;28;20071;-25
2023/04/05 05:07:17;;;;;;;3.13;1.88;;;;;;;;;;5055572;28;20033;-25
2023/04/05 05:09:44;;;;;;;2.05;1.70;;;;;;;;;;5055253;28;20021;-25
2023/04/05 05:12:10;;;;;;;6.38;2.60;;;;;;;;;;5055529;28;20423;-25
2023/04/05 05:14:36;;;;;;;2.90;1.75;;;;;;;;;;5055506;28;20055;-25
2023/04/05 05:17:05;;;;;;;5.43;2.17;;;;;;;;;;5055138;28;20024;-25
2023/04/05 05:19:31;;;;;;;6.22;2.83;;;;;;;;;;5055672;28;20024;-25
2023/04/05 05:21:57;;;;;;;5.70;1.95;;;;;;;;;;5055380;28;20100;-25
2023/04/05 05:24:23;;;;;;;6.85;2.90;;;;;;;;;;5055502;28;20025;-25
2023/04/05 05:26:50;;;;;;;7.40;1.85;;;;;;;;;;5055247;28;20029;-25
2023/04/05 05:29:16;;;;;;;5.20;2.47;;;;;;;;;;5054954;28;20080;-25
2023/04/05 05:31:42;;;;;;;5.70;1.75;;;;;;;;;;5054867;28;20056;-25
2023/04/05 05:34:08;;;;;;;5.32;2.03;;;;;;;;;;5054190;28;20114;-25
2023/04/05 05:36:34;;;;;;;6.15;2.42;;;;;;;;;;5055112;28;20072;-25
2023/04/05 05:39:03;;;;;;;2.20;1.30;;;;;;;;;;5054647;28;20021;-25
2023/04/05 05:41:30;;;;;;;5.50;2.17;;;;;;;;;;5054592;28;20021;-25
2023/04/05 05:43:56;;;;;;;3.47;1.70;;;;;;;;;;5054456;28;20080;-25
2023/04/05 05:46:22;;;;;;;2.70;1.70;;;;;;;;;;5054659;28;20094;-25
2023/04/05 05:48:48;;;;;;;7.10;1.80;;;;;;;;;;5054447;28;20094;-25
2023/04/05 05:51:14;;;;;;;4.25;1.80;;;;;;;;;;5054697;28;20337;-25
2023/04/05 05:53:40;;;;;;;7.70;1.95;;;;;;;;;;5054508;28;20032;-37
2023/04/05 05:56:07;;;;;;;8.10;2.45;;;;;;;;;;5054699;28;20106;-25
2023/04/05 05:58:33;;;;;;;5.38;1.80;;;;;;;;;;5036953;28;20087;-25
2023/04/05 06:01:00;;;;;;;7.22;1.70;;;;;;;;;;5054371;28;20029;-25
2023/04/05 06:03:28;;;;;;;8.82;2.25;;;;;;;;;;5054662;28;20096;-25
2023/04/05 06:05:55;;;;;;;4.72;2.25;;;;;;;;;;5054353;28;20052;-25
2023/04/05 06:08:21;;;;;;;2.58;1.70;;;;;;;;;;5054288;28;20025;-25
2023/04/05 06:10:48;;;;;;;18.02;2.75;;;;;;;;;;5054521;28;20351;-25
2023/04/05 06:13:14;;;;;;;13.93;3.45;;;;;;;;;;5054335;28;20025;-25
2023/04/05 06:15:42;;;;;;;11.00;2.55;;;;;;;;;;5036638;28;20031;-25
2023/04/05 06:18:08;;;;;;;19.25;3.25;;;;;;;;;;5054029;28;20025;-25
2023/04/05 06:20:39;;;;;;;15.07;2.42;;;;;;;;;;5054740;28;20029;-25
2023/04/05 06:23:06;;;;;;;12.38;2.25;;;;;;;;;;5054242;28;20029;-25
2023/04/05 06:25:32;;;;;;;12.55;1.95;;;;;;;;;;5054507;28;20141;-25
2023/04/05 06:27:59;;;;;;;9.07;2.42;;;;;;;;;;5054046;28;20063;-25
2023/04/05 06:30:25;;;;;;;10.50;2.55;;;;;;;;;;5054314;28;20032;-25
2023/04/05 06:32:53;;;;;;;5.05;1.80;;;;;;;;;;5054450;28;20488;-25
2023/04/05 06:35:20;;;;;;;7.40;2.20;;;;;;;;;;5054132;28;20055;-25
2023/04/05 06:37:46;;;;;;;12.45;3.30;;;;;;;;;;5036457;28;20036;-25
2023/04/05 06:40:13;;;;;;;5.45;2.80;;;;;;;;;;5054758;28;20044;-25
2023/04/05 06:42:39;;;;;;;6.72;2.08;;;;;;;;;;5053686;28;20025;-25
2023/04/05 06:45:05;;;;;;;13.63;2.38;;;;;;;;;;5038094;28;20444;-25
2023/04/05 06:47:35;;;;;;;10.40;2.40;;;;;;;;;;5057740;28;20032;-25
2023/04/05 06:50:01;;;;;;;11.38;2.40;;;;;;;;;;5057946;28;20124;-25
2023/04/05 06:52:28;;;;;;;13.90;3.03;;;;;;;;;;5057938;28;20043;-25
2023/04/05 06:54:55;;;;;;;22.23;2.95;;;;;;;;;;5057812;28;20029;-25
2023/04/05 06:57:21;;;;;;;13.65;2.72;;;;;;;;;;5057908;28;20021;-25
2023/04/05 06:59:47;;;;;;;14.30;2.60;;;;;;;;;;5057576;28;20013;-25
2023/04/05 07:02:13;;;;;;;15.32;2.50;;;;;;;;;;5057509;28;20025;-25
2023/04/05 07:04:40;;;;;;;8.23;1.90;;;;;;;;;;5057921;28;20169;-25
2023/04/05 07:07:06;;;;;;;3.60;2.00;;;;;;;;;;5057391;28;20094;-25
2023/04/05 07:09:32;;;;;;;7.20;1.92;;;;;;;;;;5057419;28;20025;-25
2023/04/05 07:12:03;;;;;;;9.02;2.10;;;;;;;;;;5057389;28;20036;-25
2023/04/05 07:14:30;;;;;;;10.50;2.47;;;;;;;;;;5057577;28;20094;-25
2023/04/05 07:16:56;;;;;;;11.35;2.83;;;;;;;;;;5057856;28;20025;-25
2023/04/05 07:19:23;;;;;;;17.42;3.50;;;;;;;;;;5057501;28;20075;-25
2023/04/05 07:21:49;;;;;;;9.98;1.90;;;;;;;;;;5057330;28;20463;-25
2023/04/05 07:24:15;;;;;;;4.18;2.28;;;;;;;;;;5057474;28;20025;-25
2023/04/05 07:26:41;;;;;;;4.07;1.73;;;;;;;;;;5040108;28;20029;-25
2023/04/05 07:29:08;;;;;;;10.07;2.10;;;;;;;;;;5039492;28;20025;-25
2023/04/05 07:31:34;;;;;;;5.18;2.38;;;;;;;;;;5056946;28;20445;-25
2023/04/05 07:34:01;;;;;;;2.90;1.85;;;;;;;;;;5056986;28;20021;-25
2023/04/05 07:36:29;;;;;;;15.38;2.60;;;;;;;;;;5057029;28;20055;-25
2023/04/05 07:38:56;;;;;;;2.75;1.67;;;;;;;;;;5056881;28;20064;-25
2023/04/05 07:41:22;;;;;;;2.53;1.27;;;;;;;;;;5056726;28;20079;-25
2023/04/05 07:43:49;;;;;;;4.97;2.00;;;;;;;;;;5056621;28;20124;-25
2023/04/05 07:46:15;;;;;;;11.93;3.08;;;;;;;;;;5056794;28;20040;-25
2023/04/05 07:48:41;;;;;;;15.10;2.38;;;;;;;;;;5056727;28;20055;-25
2023/04/05 07:51:08;;;;;;;10.13;2.33;;;;;;;;;;5056995;28;20036;-25
2023/04/05 07:53:35;;;;;;;7.18;2.30;;;;;;;;;;5056604;28;20058;-25
2023/04/05 07:56:08;;;;;;;8.10;1.98;;;;;;;;;;5055381;28;20033;-25
2023/04/05 07:58:34;;;;;;;13.23;2.42;;;;;;;;;;5056225;28;20063;-25
2023/04/05 08:01:01;;;;;;;17.63;3.35;;;;;;;;;;5056686;28;20032;-25
2023/04/05 08:03:29;;;;;;;10.23;2.30;;;;;;;;;;5056348;28;20021;-25
2023/04/05 08:05:55;;;;;;;9.88;2.38;;;;;;;;;;5056487;28;20039;-25
2023/04/05 08:08:23;;;;;;;13.45;2.85;;;;;;;;;;5056361;28;20053;-25
2023/04/05 08:10:50;;;;;;;12.50;2.50;;;;;;;;;;5056598;28;20032;-25
2023/04/05 08:13:16;;;;;;;8.82;2.03;;;;;;;;;;5056623;28;20029;-25
2023/04/05 08:15:42;;;;;;;6.05;1.70;;;;;;;;;;5038717;28;20021;-25
2023/04/05 08:18:08;;;;;;;8.00;1.98;;;;;;;;;;5038715;28;20504;-25
2023/04/05 08:20:37;;;;;;;5.80;2.13;;;;;;;;;;5056167;28;20040;-25
2023/04/05 08:23:06;;;;;;;11.63;2.00;;;;;;;;;;5056130;28;20032;-25
2023/04/05 08:25:33;;;;;;;6.43;2.47;;;;;;;;;;5056170;28;20103;-25
2023/04/05 08:27:59;;;;;;;6.20;2.10;;;;;;;;;;5056037;28;20035;-25
2023/04/05 08:30:25;;;;;;;8.70;1.92;;;;;;;;;;5056269;28;20337;-25
2023/04/05 08:32:52;;;;;;;7.28;2.28;;;;;;;;;;5055909;28;20021;-25
2023/04/05 08:35:18;;;;;;;5.75;2.25;;;;;;;;;;5056219;28;20330;-25
2023/04/05 08:37:46;;;;;;;19.20;3.13;;;;;;;;;;5056040;28;20021;-25
2023/04/05 08:40:12;;;;;;;11.75;3.42;;;;;;;;;;5055770;28;20024;-25
2023/04/05 08:42:46;;;;;;;7.15;2.33;;;;;;;;;;5037983;28;20427;-25
2023/04/05 08:45:14;;;;;;;10.73;2.20;;;;;;;;;;5056045;28;20017;-25
2023/04/05 08:47:41;;;;;;;10.63;2.33;;;;;;;;;;5055660;28;20025;-25
2023/04/05 08:50:09;;;;;;;12.80;2.50;;;;;;;;;;5055661;28;20025;-25
2023/04/05 08:52:38;;;;;;;4.95;2.58;;;;;;;;;;5056429;28;20024;-25
2023/04/05 08:55:05;;;;;;;7.78;2.00;;;;;;;;;;5055822;28;20420;-25
2023/04/05 08:57:32;;;;;;;8.45;2.22;;;;;;;;;;5055353;28;20025;-25
2023/04/05 09:00:00;;;;;;;5.57;1.85;;;;;;;;;;5056102;28;20059;-25
2023/04/05 09:02:26;;;;;;;9.70;2.40;;;;;;;;;;5055646;28;20326;-25
2023/04/05 09:04:53;;;;;;;6.10;2.15;;;;;;;;;;5055442;28;20094;-25
2023/04/05 09:07:20;;;;;;;3.03;2.05;;;;;;;;;;5055371;28;20090;-25
2023/04/05 09:09:48;;;;;;;7.25;2.28;;;;;;;;;;5037664;28;20029;-25
2023/04/05 09:12:14;;;;;;;5.32;1.67;;;;;;;;;;5055220;28;20056;-25
2023/04/05 09:14:41;;;;;;;2.60;1.63;;;;;;;;;;5055095;28;20021;-25
2023/04/05 09:17:07;;;;;;;4.05;2.13;;;;;;;;;;5055076;28;20094;-25
2023/04/05 09:19:34;;;;;;;5.32;2.25;;;;;;;;;;5055038;28;20111;-25
2023/04/05 09:22:04;;;;;;;2.38;1.73;;;;;;;;;;5055314;28;20100;-25
2023/04/05 09:24:39;;;;;;;7.18;2.28;;;;;;;;;;5055009;28;20040;-25
2023/04/05 09:27:05;;;;;;;5.53;2.28;;;;;;;;;;5055028;28;20033;-25
2023/04/05 09:29:31;;;;;;;7.00;2.10;;;;;;;;;;5054890;28;20032;-25
2023/04/05 09:31:58;;;;;;;5.82;1.85;;;;;;;;;;5055061;28;20380;-25
2023/04/05 09:34:24;;;;;;;8.27;2.20;;;;;;;;;;5054855;28;20025;-25
2023/04/05 09:36:51;;;;;;;8.05;2.30;;;;;;;;;;5055001;28;20462;-25
2023/04/05 09:39:21;;;;;;;6.13;2.20;;;;;;;;;;5055067;28;20046;-25
2023/04/05 09:42:18;;;;;;;5.53;2.05;;;;;;;;;;5055006;28;20024;-25
2023/04/05 09:44:55;;;;;;;12.63;2.47;;;;;;;;;;5022285;28;20049;-25
2023/04/05 09:47:23;;;;;;;4.00;2.63;;;;;;;;;;5034871;28;20029;-25
2023/04/05 09:49:50;;;;;;;9.48;2.53;;;;;;;;;;5034880;28;20393;-25
2023/04/05 09:52:27;;;;;;;3.15;1.52;;;;;;;;;;5034445;28;20029;-25
2023/04/05 09:54:55;;;;;;;6.68;1.80;;;;;;;;;;5034794;28;20399;-25
2023/04/05 09:57:22;;;;;;;7.05;3.20;;;;;;;;;;5034400;28;20177;-25
2023/04/05 09:59:48;;;;;;;4.60;2.20;;;;;;;;;;5034697;28;20342;-25
2023/04/05 10:02:15;;;;;;;6.97;1.80;;;;;;;;;;5033370;28;20030;-25
2023/04/05 10:04:42;;;;;;;3.35;1.70;;;;;;;;;;5033409;28;20368;-25
2023/04/05 10:07:12;;;;;;;12.27;2.47;;;;;;;;;;5034349;28;20037;-25
2023/04/05 10:09:39;;;;;;;8.45;3.08;;;;;;;;;;5034467;28;20034;-25
2023/04/05 10:12:06;;;;;;;6.82;1.98;;;;;;;;;;5034635;28;20030;-25
2023/04/05 10:14:33;;;;;;;6.18;2.47;;;;;;;;;;5034449;28;20072;-25
2023/04/05 10:17:02;;;;;;;7.40;1.95;;;;;;;;;;5034314;28;20026;-25
2023/04/05 10:19:44;;;;;;;7.70;1.80;;;;;;;;;;5036941;28;20067;-25
2023/04/05 10:22:14;;;;;;;6.05;1.70;;;;;;;;;;5040921;28;20155;-25
2023/04/05 10:24:45;;;;;;;5.00;2.00;;;;;;;;;;5041256;28;20120;-25
2023/04/05 10:27:19;;;;;;;5.65;1.90;;;;;;;;;;5041092;28;20104;-25
2023/04/05 10:29:55;;;;;;;5.68;2.00;;;;;;;;;;5041397;28;20037;-25
2023/04/05 10:32:30;;;;;;;5.00;2.35;;;;;;;;;;5040944;28;20029;-25
2023/04/05 10:35:19;;;;;;;4.85;2.50;;;;;;;;;;5041088;28;20026;-25
2023/04/05 10:37:52;;;;;;;8.40;2.10;;;;;;;;;;5022302;28;20029;-25
2023/04/05 10:40:21;;;;;;;8.07;2.28;;;;;;;;;;5040797;28;20018;-25
2023/04/05 10:42:48;;;;;;;2.97;1.50;;;;;;;;;;5043133;28;20029;-25
2023/04/05 10:45:18;;;;;;;6.03;1.67;;;;;;;;;;5060711;28;20069;-25
2023/04/05 10:47:54;;;;;;;2.88;1.60;;;;;;;;;;5060436;28;20040;-25
2023/04/05 10:50:24;;;;;;;5.10;1.80;;;;;;;;;;5060845;28;20052;-25
2023/04/05 10:52:54;;;;;;;8.43;1.75;;;;;;;;;;5060554;28;20067;-25
2023/04/05 10:55:23;;;;;;;6.97;2.45;;;;;;;;;;5060549;28;20048;-25
2023/04/05 10:57:49;;;;;;;6.43;2.10;;;;;;;;;;5060424;28;20082;-25
2023/04/05 11:00:17;;;;;;;11.02;2.95;;;;;;;;;;5060829;28;20021;-25
2023/04/05 11:02:43;;;;;;;10.13;2.00;;;;;;;;;;5061350;28;20017;-25
2023/04/05 11:05:28;;;;;;;3.65;2.30;;;;;;;;;;5042933;28;20021;-25
2023/04/05 11:07:59;;;;;;;6.30;2.00;;;;;;;;;;5060457;28;20035;-25
2023/04/05 11:10:26;;;;;;;12.45;2.45;;;;;;;;;;5060457;28;20021;-25
2023/04/05 11:12:52;;;;;;;10.25;1.80;;;;;;;;;;5043398;28;20028;-25
2023/04/05 11:15:27;;;;;;;6.30;1.85;;;;;;;;;;5043612;28;20175;-25
2023/04/05 11:18:03;;;;;;;10.80;2.00;;;;;;;;;;5060603;28;20024;-25
2023/04/05 11:20:40;;;;;;;5.82;1.98;;;;;;;;;;5060941;28;20082;-25
2023/04/05 11:23:06;;;;;;;8.48;1.85;;;;;;;;;;5060597;28;20158;-25
2023/04/05 11:25:37;;;;;;;5.38;2.15;;;;;;;;;;5060714;28;20381;-25
2023/04/05 11:28:04;;;;;;;5.63;1.95;;;;;;;;;;5060286;28;20450;-25
2023/04/05 11:30:50;;;;;;;6.78;1.95;;;;;;;;;;5059819;28;20487;-20
2023/04/05 11:33:35;;;;;;;6.03;2.25;;;;;;;;;;5057171;28;20025;-22
2023/04/05 11:36:02;;;;;;;10.25;3.30;;;;;;;;;;5039489;28;20028;-23
2023/04/05 11:38:28;;;;;;;6.93;1.90;;;;;;;;;;5057301;28;20048;-20
2023/04/05 11:41:17;;;;;;;10.68;2.30;;;;;;;;;;5057332;28;20053;-23
2023/04/05 11:43:46;;;;;;;4.50;1.95;;;;;;;;;;5056852;28;20130;-23
2023/04/05 11:46:14;;;;;;;4.00;1.92;;;;;;;;;;5057225;28;20025;-23
2023/04/05 11:48:43;;;;;;;13.60;3.30;;;;;;;;;;5039244;28;20036;-23
2023/04/05 11:51:10;;;;;;;8.10;2.30;;;;;;;;;;5057284;28;20024;-24
2023/04/05 11:53:37;;;;;;;7.55;1.88;;;;;;;;;;5056944;28;20025;-22
2023/04/05 11:56:11;;;;;;;8.40;1.63;;;;;;;;;;5057805;28;20057;-24
2023/04/05 11:58:37;;;;;;;6.82;2.30;;;;;;;;;;5056725;28;20021;-21
2023/04/05 12:01:06;;;;;;;12.63;2.38;;;;;;;;;;5039144;28;20025;-21
2023/04/05 12:03:33;;;;;;;5.72;2.75;;;;;;;;;;5056588;28;20469;-21
2023/04/05 12:06:00;;;;;;;3.55;1.98;;;;;;;;;;5056619;28;20033;-21
2023/04/05 12:08:49;;;;;;;8.27;1.90;;;;;;;;;;5056528;28;20380;-21
2023/04/05 12:11:15;;;;;;;7.70;1.80;;;;;;;;;;5056442;28;20025;-22
2023/04/05 12:13:41;;;;;;;11.70;2.17;;;;;;;;;;5056485;28;20020;-22
2023/04/05 12:16:08;;;;;;;5.47;2.50;;;;;;;;;;5056709;28;20017;-21
2023/04/05 12:18:35;;;;;;;9.98;2.25;;;;;;;;;;5056345;28;20025;-21
2023/04/05 12:21:02;;;;;;;2.92;1.90;;;;;;;;;;5056600;28;20029;-20
2023/04/05 12:23:28;;;;;;;3.92;2.10;;;;;;;;;;5056204;28;20036;-21
2023/04/05 12:25:55;;;;;;;5.47;1.98;;;;;;;;;;5056534;28;20352;-21
2023/04/05 12:28:22;;;;;;;5.35;1.80;;;;;;;;;;5056471;28;20096;-20
2023/04/05 12:30:49;;;;;;;16.20;2.92;;;;;;;;;;5056086;28;20047;-20
2023/04/05 12:33:15;;;;;;;7.78;3.38;;;;;;;;;;5056066;28;20368;-24
2023/04/05 12:35:41;;;;;;;9.95;2.70;;;;;;;;;;5056153;28;20021;-24
2023/04/05 12:38:09;;;;;;;9.13;2.45;;;;;;;;;;5055949;28;20032;-21
2023/04/05 12:40:35;;;;;;;5.53;1.92;;;;;;;;;;5056271;28;20055;-21
2023/04/05 12:43:05;;;;;;;11.50;2.42;;;;;;;;;;5055138;28;20060;-25
2023/04/05 12:45:38;;;;;;;3.88;2.47;;;;;;;;;;5056249;28;20020;-21
2023/04/05 12:48:09;;;;;;;7.85;2.28;;;;;;;;;;5056064;28;20397;-26
2023/04/05 12:50:35;;;;;;;;;;;;;;;;;;5056375;28;20021;-21
2023/04/05 12:53:05;;;;;;;7.00;2.05;;;;;;;;;;5055660;28;19916;-21
2023/04/05 12:55:32;;;;;;;7.63;2.08;;;;;;;;;;5055935;28;20027;-21
2023/04/05 12:57:59;;;;;;;10.63;2.92;;;;;;;;;;5055620;28;20029;-23
2023/04/05 13:00:26;;;;;;;5.50;3.13;;;;;;;;;;5055917;28;20032;-22
2023/04/05 13:02:53;;;;;;;4.45;1.90;;;;;;;;;;5055766;28;20044;-23
2023/04/05 13:05:20;;;;;;;6.57;2.00;;;;;;;;;;5055735;28;20033;-24
2023/04/05 13:07:46;;;;;;;12.15;1.95;;;;;;;;;;5055377;28;20025;-22
2023/04/05 13:10:13;;;;;;;2.92;1.80;;;;;;;;;;5055649;28;20036;-20
2023/04/05 13:12:39;;;;;;;7.13;1.77;;;;;;;;;;5055552;28;20031;-21
2023/04/05 13:15:05;;;;;;;2.83;1.73;;;;;;;;;;5055405;28;20049;-21
2023/04/05 13:17:31;;;;;;;5.78;2.53;;;;;;;;;;5055020;28;20415;-23
2023/04/05 13:19:57;;;;;;;4.28;1.77;;;;;;;;;;5055145;28;20036;-21
2023/04/05 13:22:23;;;;;;;7.95;2.30;;;;;;;;;;5055285;28;20091;-21
2023/04/05 13:24:51;;;;;;;5.18;2.05;;;;;;;;;;5055342;28;20060;-21
2023/04/05 13:27:17;;;;;;;9.00;2.17;;;;;;;;;;5037994;28;20037;-20
2023/04/05 13:29:43;;;;;;;7.53;1.88;;;;;;;;;;5055110;28;20452;-21
2023/04/05 13:32:09;;;;;;;6.53;1.90;;;;;;;;;;5037243;28;20025;-23
2023/04/05 13:34:35;;;;;;;5.78;1.80;;;;;;;;;;5054808;28;20100;-26
2023/04/05 13:37:01;;;;;;;3.92;2.35;;;;;;;;;;5054952;28;20017;-21
2023/04/05 13:39:27;;;;;;;5.38;1.88;;;;;;;;;;5055040;28;20017;-21
2023/04/05 13:41:53;;;;;;;8.70;2.03;;;;;;;;;;5054966;28;20025;-22
2023/04/05 13:44:19;;;;;;;8.27;3.05;;;;;;;;;;5037033;28;20140;-21
2023/04/05 13:46:45;;;;;;;5.32;1.67;;;;;;;;;;5054952;28;20025;-21
2023/04/05 13:49:11;;;;;;;10.13;2.20;;;;;;;;;;5054578;28;20025;-23
2023/04/05 13:51:40;;;;;;;4.82;2.53;;;;;;;;;;5054591;28;20059;-22
2023/04/05 13:54:10;;;;;;;5.80;1.98;;;;;;;;;;5053593;28;20091;-26
2023/04/05 13:56:39;;;;;;;6.67;2.77;;;;;;;;;;5054412;28;20025;-24
2023/04/05 13:59:05;;;;;;;9.93;1.95;;;;;;;;;;5054267;28;20091;-21
2023/04/05 14:01:33;;;;;;;10.40;2.50;;;;;;;;;;5054488;28;20063;-21
2023/04/05 14:03:59;;;;;;;2.72;1.65;;;;;;;;;;5055154;28;20028;-21
2023/04/05 14:06:26;;;;;;;5.55;1.92;;;;;;;;;;5054927;28;20025;-21
2023/04/05 14:08:54;;;;;;;13.18;2.15;;;;;;;;;;5036765;28;20364;-21
2023/04/05 14:11:23;;;;;;;3.35;1.85;;;;;;;;;;5054535;28;20080;-22
2023/04/05 14:13:52;;;;;;;5.28;2.72;;;;;;;;;;5054377;28;20055;-22
2023/04/05 14:16:18;;;;;;;3.35;2.03;;;;;;;;;;5054327;28;20021;-25
2023/04/05 14:18:45;;;;;;;5.57;2.78;;;;;;;;;;5054275;28;20021;-23
2023/04/05 14:21:11;;;;;;;6.13;2.00;;;;;;;;;;5054498;28;20208;-23
2023/04/05 14:23:37;;;;;;;5.50;2.33;;;;;;;;;;5054301;28;20025;-22
2023/04/05 14:26:03;;;;;;;3.75;1.90;;;;;;;;;;5054487;28;20033;-21
2023/04/05 14:28:29;;;;;;;11.18;2.10;;;;;;;;;;5054258;28;20036;-25
2023/04/05 14:30:57;;;;;;;6.65;2.00;;;;;;;;;;5054686;28;20028;-21
2023/04/05 14:33:23;;;;;;;5.57;2.92;;;;;;;;;;5054246;28;20462;-29
2023/04/05 14:35:50;;;;;;;8.38;1.83;;;;;;;;;;5054197;28;20104;-21
2023/04/05 14:38:16;;;;;;;3.83;2.08;;;;;;;;;;5054219;28;20351;-21
2023/04/05 14:40:42;;;;;;;5.07;2.17;;;;;;;;;;5054030;28;20029;-21
2023/04/05 14:43:08;;;;;;;6.35;2.60;;;;;;;;;;5053800;28;20049;-21
2023/04/05 14:45:34;;;;;;;4.65;2.00;;;;;;;;;;5054052;28;20029;-21